Time;durP1;ratioP1;P1;durP2;ratioP2;P2;SDS_P1;SDS_P2;PMS_P1;PMS_P2;Temp;Humidity;BMP_temperature;BMP_pressure;BME280_temperature;BME280_humidity;BME280_pressure;Samples;Min_cycle;Max_cycle;Signal;HPM_P1;HPM_P2
2021/08/28 00:01:08;;;;;;;;;;;;;;;11.93;75.83;97944.94;1763059;79;24510;-83
2021/08/28 00:03:36;;;;;;;;;;;;;;;11.94;75.87;97944.81;1764825;80;20313;-84
2021/08/28 00:06:09;;;;;;;;;;;;;;;11.91;75.92;97945.53;1762374;79;20199;-84
2021/08/28 00:08:39;;;;;;;;;;;;;;;11.90;75.96;97948.63;1757787;80;21987;-85
2021/08/28 00:11:11;;;;;;;;;;;;;;;11.91;76.03;97948.15;1766020;80;26146;-85
2021/08/28 00:13:37;;;;;;;;;;;;;;;11.87;76.07;97950.20;1762795;80;24519;-85
2021/08/28 00:16:03;;;;;;;;;;;;;;;11.85;76.10;97952.11;1732507;81;20301;-88
2021/08/28 00:18:29;;;;;;;;;;;;;;;11.85;76.15;97948.17;1763563;80;25298;-88
2021/08/28 00:20:55;;;;;;;;;;;;;;;11.84;76.22;97952.27;1766030;80;21983;-88
2021/08/28 00:23:21;;;;;;;;;;;;;;;11.80;76.24;97952.14;1766453;80;21065;-88
2021/08/28 00:25:47;;;;;;;;;;;;;;;11.79;76.29;97955.23;1765001;80;24549;-88
2021/08/28 00:28:13;;;;;;;;;;;;;;;11.75;76.33;97955.14;1768321;80;20832;-88
2021/08/28 00:30:39;;;;;;;;;;;;;;;11.72;76.39;97958.83;1763042;79;24731;-88
2021/08/28 00:33:10;;;;;;;;;;;;;;;11.71;76.44;97962.88;1764195;79;22539;-87
2021/08/28 00:35:36;;;;;;;;;;;;;;;11.68;76.49;97962.64;1766773;79;26677;-87
2021/08/28 00:38:02;;;;;;;;;;;;;;;11.71;76.53;97965.50;1763716;79;24528;-87
2021/08/28 00:40:28;;;;;;;;;;;;;;;11.67;76.58;97969.34;1764081;80;20229;-86
2021/08/28 00:42:54;;;;;;;;;;;;;;;11.61;76.62;97963.28;1764202;79;24418;-86
2021/08/28 00:45:24;;;;;;;;;;;;;;;11.62;76.67;97970.16;1753618;80;22618;-87
2021/08/28 00:47:52;;;;;;;;;;;;;;;11.64;76.73;97965.64;1760618;81;26019;-86
2021/08/28 00:50:18;;;;;;;;;;;;;;;11.63;76.78;97962.66;1754472;80;24600;-85
2021/08/28 00:52:44;;;;;;;;;;;;;;;11.61;76.83;97967.22;1767845;79;20309;-86
2021/08/28 00:55:10;;;;;;;;;;;;;;;11.56;76.87;97957.59;1757702;79;24797;-85
2021/08/28 00:57:37;;;;;;;;;;;;;;;11.59;76.93;97961.25;1757124;80;22694;-86
2021/08/28 01:00:05;;;;;;;;;;;;;;;11.58;76.96;97967.45;1758737;80;26716;-87
2021/08/28 01:02:32;;;;;;;;;;;;;;;11.56;77.01;97964.14;1757985;81;24514;-87
2021/08/28 01:05:03;;;;;;;;;;;;;;;11.57;77.06;97965.30;1757212;81;20257;-86
2021/08/28 01:07:34;;;;;;;;;;;;;;;11.63;77.10;97971.83;1757898;80;25001;-86
2021/08/28 01:10:02;;;;;;;;;;;;;;;11.62;77.14;97968.38;1757546;80;22700;-86
2021/08/28 01:12:30;;;;;;;;;;;;;;;11.62;77.19;97978.03;1758452;80;26145;-86
2021/08/28 01:14:57;;;;;;;;;;;;;;;11.59;77.24;97971.73;1758191;80;24456;-86
2021/08/28 01:17:25;;;;;;;;;;;;;;;11.57;77.28;97972.33;1760381;80;20226;-86
2021/08/28 01:19:53;;;;;;;;;;;;;;;11.57;77.31;97978.41;1759199;80;25069;-86
2021/08/28 01:22:19;;;;;;;;;;;;;;;11.61;77.34;97975.91;1756466;80;22024;-86
2021/08/28 01:24:51;;;;;;;;;;;;;;;11.63;77.37;97973.14;1759145;80;25992;-86
2021/08/28 01:27:20;;;;;;;;;;;;;;;11.60;77.42;97972.09;1755902;81;24452;-86
2021/08/28 01:29:47;;;;;;;;;;;;;;;11.58;77.45;97973.52;1723529;80;20163;-86
2021/08/28 01:32:14;;;;;;;;;;;;;;;11.58;77.51;97972.69;1756822;81;25483;-86
2021/08/28 01:34:41;;;;;;;;;;;;;;;11.61;77.56;97980.32;1760661;80;22154;-86
2021/08/28 01:37:08;;;;;;;;;;;;;;;11.56;77.58;97972.83;1761461;80;26042;-86
2021/08/28 01:39:35;;;;;;;;;;;;;;;11.57;77.63;97978.41;1760126;80;24768;-85
2021/08/28 01:42:03;;;;;;;;;;;;;;;11.61;77.69;97975.08;1758654;80;20438;-86
2021/08/28 01:44:30;;;;;;;;;;;;;;;11.61;77.71;97970.67;1757478;81;24932;-86
2021/08/28 01:46:59;;;;;;;;;;;;;;;11.66;77.78;97975.53;1760752;80;22102;-86
2021/08/28 01:49:25;;;;;;;;;;;;;;;11.68;77.83;97973.13;1759029;80;26046;-86
2021/08/28 01:51:52;;;;;;;;;;;;;;;11.67;77.86;97968.03;1760358;80;24533;-86
2021/08/28 01:54:21;;;;;;;;;;;;;;;11.70;77.90;97967.77;1759962;80;20461;-85
2021/08/28 01:56:47;;;;;;;;;;;;;;;11.70;77.93;97971.70;1706457;82;24811;-86
2021/08/28 01:59:13;;;;;;;;;;;;;;;11.71;77.98;97970.75;1725827;83;23334;-85
2021/08/28 02:01:39;;;;;;;;;;;;;;;11.73;78.03;97971.46;1708737;83;26054;-86
2021/08/28 02:04:05;;;;;;;;;;;;;;;11.71;78.06;97974.20;1737293;80;24507;-86
2021/08/28 02:06:46;;;;;;;;;;;;;;;11.68;78.07;97973.13;1711198;82;20635;-86
2021/08/28 02:09:13;;;;;;;;;;;;;;;11.73;78.12;97967.53;1735777;80;24788;-86
2021/08/28 02:11:44;;;;;;;;;;;;;;;11.77;78.15;97970.28;1725884;80;21984;-86
2021/08/28 02:14:21;;;;;;;;;;;;;;;11.77;78.18;97965.03;1715288;82;25963;-85
2021/08/28 02:16:47;;;;;;;;;;;;;;;11.80;78.19;97963.94;1740235;80;24468;-85
2021/08/28 02:19:18;;;;;;;;;;;;;;;11.78;78.22;97957.53;1750572;80;20477;-85
2021/08/28 02:21:45;;;;;;;;;;;;;;;11.75;78.22;97964.31;1744427;81;24864;-84
2021/08/28 02:24:12;;;;;;;;;;;;;;;11.71;78.24;97957.64;1739506;80;21945;-84
2021/08/28 02:26:40;;;;;;;;;;;;;;;11.68;78.26;97961.80;1736455;81;25975;-84
2021/08/28 02:29:08;;;;;;;;;;;;;;;11.67;78.30;97969.34;1750124;81;24521;-84
2021/08/28 02:31:36;;;;;;;;;;;;;;;11.66;78.32;97965.88;1738798;80;20309;-84
2021/08/28 02:34:05;;;;;;;;;;;;;;;11.65;78.38;97962.91;1736544;80;25774;-86
2021/08/28 02:36:31;;;;;;;;;;;;;;;11.67;78.40;97961.48;1736086;80;22057;-86
2021/08/28 02:38:57;;;;;;;;;;;;;;;11.67;78.42;97958.86;1737571;80;25974;-86
2021/08/28 02:41:25;;;;;;;;;;;;;;;11.68;78.44;97955.25;1739264;80;24452;-86
2021/08/28 02:43:59;;;;;;;;;;;;;;;11.68;78.46;97953.47;1711419;82;20298;-86
2021/08/28 02:46:27;;;;;;;;;;;;;;;11.67;78.51;97954.41;1747032;80;24949;-86
2021/08/28 02:48:54;;;;;;;;;;;;;;;11.67;78.54;97950.48;1737737;81;21977;-86
2021/08/28 02:51:22;;;;;;;;;;;;;;;11.66;78.57;97954.09;1712537;83;26096;-84
2021/08/28 02:53:48;;;;;;;;;;;;;;;11.64;78.60;97954.68;1709914;83;24504;-84
2021/08/28 02:56:15;;;;;;;;;;;;;;;11.66;78.62;97951.47;1698331;82;20274;-87
2021/08/28 02:58:42;;;;;;;;;;;;;;;11.65;78.67;97952.42;1709628;84;24958;-87
2021/08/28 03:01:08;;;;;;;;;;;;;;;11.64;78.70;97954.68;1707785;83;22071;-87
2021/08/28 03:03:42;;;;;;;;;;;;;;;11.59;78.69;97945.05;1708181;84;26126;-87
2021/08/28 03:06:10;;;;;;;;;;;;;;;11.55;78.72;97950.67;1707613;83;25198;-87
2021/08/28 03:08:39;;;;;;;;;;;;;;;11.54;78.78;97945.91;1708096;84;20268;-87
2021/08/28 03:11:05;;;;;;;;;;;;;;;11.55;78.79;97948.05;1708081;84;24757;-87
2021/08/28 03:13:31;;;;;;;;;;;;;;;11.57;78.84;97944.81;1707041;84;22019;-87
2021/08/28 03:16:11;;;;;;;;;;;;;;;11.54;78.88;97946.39;1709792;83;26072;-87
2021/08/28 03:18:38;;;;;;;;;;;;;;;11.53;78.91;97942.93;1709921;83;24616;-85
2021/08/28 03:21:05;;;;;;;;;;;;;;;11.52;78.95;97941.73;1709857;83;20252;-88
2021/08/28 03:23:32;;;;;;;;;;;;;;;11.53;78.99;97944.23;1709683;82;24323;-87
2021/08/28 03:25:59;;;;;;;;;;;;;;;11.53;79.04;97948.64;1708925;82;21991;-87
2021/08/28 03:28:31;;;;;;;;;;;;;;;11.51;79.06;97944.83;1737962;81;21892;-87
2021/08/28 03:30:57;;;;;;;;;;;;;;;11.51;79.08;97944.83;1708989;84;24723;-86
2021/08/28 03:33:24;;;;;;;;;;;;;;;11.50;79.11;97935.81;1708794;83;20887;-87
2021/08/28 03:35:51;;;;;;;;;;;;;;;11.45;79.13;97942.73;1706863;84;25410;-87
2021/08/28 03:38:17;;;;;;;;;;;;;;;11.41;79.14;97947.84;1738648;81;22082;-87
2021/08/28 03:40:44;;;;;;;;;;;;;;;11.40;79.18;97948.80;1709661;84;25896;-86
2021/08/28 03:43:10;;;;;;;;;;;;;;;11.39;79.20;97945.02;1710112;83;25310;-88
2021/08/28 03:45:43;;;;;;;;;;;;;;;11.39;79.25;97950.26;1709301;83;20499;-87
2021/08/28 03:48:09;;;;;;;;;;;;;;;11.38;79.26;97957.75;1710529;84;24790;-87
2021/08/28 03:50:35;;;;;;;;;;;;;;;11.36;79.30;97950.48;1708888;83;22988;-87
2021/08/28 03:53:02;;;;;;;;;;;;;;;11.36;79.35;97940.84;1708600;82;25971;-87
2021/08/28 03:55:28;;;;;;;;;;;;;;;11.37;79.39;97949.06;1709461;83;24609;-87
2021/08/28 03:57:57;;;;;;;;;;;;;;;11.40;79.43;97945.38;1733801;80;20240;-87
2021/08/28 04:00:25;;;;;;;;;;;;;;;11.44;79.49;97949.41;1704654;80;22455;-88
2021/08/28 04:02:51;;;;;;;;;;;;;;;11.47;79.57;97951.28;1718665;81;20823;-88
2021/08/28 04:05:18;;;;;;;;;;;;;;;11.47;79.60;97947.83;1756438;81;26010;-86
2021/08/28 04:07:51;;;;;;;;;;;;;;;11.52;79.65;97944.36;1751748;81;25059;-86
2021/08/28 04:10:18;;;;;;;;;;;;;;;11.58;79.71;97945.17;1754187;80;20740;-87
2021/08/28 04:12:44;;;;;;;;;;;;;;;11.64;79.76;97946.81;1740459;81;24744;-86
2021/08/28 04:15:11;;;;;;;;;;;;;;;11.68;79.78;97940.36;1738714;82;22167;-86
2021/08/28 04:17:37;;;;;;;;;;;;;;;11.71;79.85;97937.98;1740208;81;26362;-86
2021/08/28 04:20:04;;;;;;;;;;;;;;;11.76;79.88;97941.08;1742056;81;20872;-86
2021/08/28 04:22:31;;;;;;;;;;;;;;;11.81;79.90;97941.53;1731413;81;33336;-85
2021/08/28 04:24:57;;;;;;;;;;;;;;;11.81;79.90;97942.01;1740881;81;24904;-85
2021/08/28 04:27:23;;;;;;;;;;;;;;;11.85;79.91;97944.72;1739131;81;21903;-85
2021/08/28 04:29:50;;;;;;;;;;;;;;;11.86;79.96;97943.30;1739380;81;25944;-85
2021/08/28 04:32:16;;;;;;;;;;;;;;;11.90;79.95;97944.69;1739747;81;24626;-85
2021/08/28 04:34:42;;;;;;;;;;;;;;;11.92;79.98;97947.20;1741100;81;20283;-85
2021/08/28 04:37:08;;;;;;;;;;;;;;;11.92;80.00;97949.34;1740025;81;24723;-87
2021/08/28 04:39:34;;;;;;;;;;;;;;;11.99;80.03;97952.30;1738713;81;20278;-86
2021/08/28 04:42:00;;;;;;;;;;;;;;;12.03;80.05;97953.22;1744406;81;26090;-87
2021/08/28 04:44:29;;;;;;;;;;;;;;;12.10;80.11;97950.44;1741430;82;20261;-86
2021/08/28 04:46:55;;;;;;;;;;;;;;;12.13;80.12;97946.23;1744523;81;20188;-86
2021/08/28 04:49:21;;;;;;;;;;;;;;;12.20;80.15;97947.04;1741800;81;24765;-86
2021/08/28 04:51:47;;;;;;;;;;;;;;;12.26;80.16;97947.84;1743108;81;20223;-85
2021/08/28 04:54:13;;;;;;;;;;;;;;;12.29;80.19;97947.56;1736094;81;21060;-86
2021/08/28 04:56:39;;;;;;;;;;;;;;;12.28;80.20;97948.05;1735899;81;24423;-85
2021/08/28 04:59:05;;;;;;;;;;;;;;;12.32;80.21;97946.02;1731558;81;20218;-86
2021/08/28 05:01:31;;;;;;;;;;;;;;;12.35;80.19;97952.30;1731061;81;24831;-86
2021/08/28 05:03:57;;;;;;;;;;;;;;;12.38;80.19;97952.05;1728816;82;21899;-86
2021/08/28 05:06:25;;;;;;;;;;;;;;;12.45;80.22;97952.70;1726968;81;22475;-86
2021/08/28 05:08:51;;;;;;;;;;;;;;;12.50;80.24;97958.38;1730052;81;24560;-86
2021/08/28 05:11:17;;;;;;;;;;;;;;;12.54;80.23;97964.22;1729287;81;20287;-86
2021/08/28 05:13:43;;;;;;;;;;;;;;;12.61;80.26;97957.95;1731754;81;20534;-84
2021/08/28 05:16:09;;;;;;;;;;;;;;;12.63;80.24;97959.97;1732754;81;22040;-84
2021/08/28 05:18:35;;;;;;;;;;;;;;;12.67;80.22;97960.88;1729231;81;26637;-84
2021/08/28 05:21:01;;;;;;;;;;;;;;;12.72;80.20;97961.80;1726740;81;24679;-85
2021/08/28 05:23:27;;;;;;;;;;;;;;;12.78;80.23;97959.48;1730047;81;20719;-85
2021/08/28 05:25:54;;;;;;;;;;;;;;;12.85;80.25;97959.78;1728064;81;20247;-85
2021/08/28 05:28:22;;;;;;;;;;;;;;;12.91;80.26;97962.72;1727644;82;22058;-85
2021/08/28 05:30:48;;;;;;;;;;;;;;;12.97;80.28;97964.81;1727598;81;25964;-85
2021/08/28 05:33:20;;;;;;;;;;;;;;;13.04;80.27;97962.97;1725044;82;20704;-85
2021/08/28 05:35:46;;;;;;;;;;;;;;;13.04;80.28;97949.84;1735088;81;20552;-84
2021/08/28 05:38:12;;;;;;;;;;;;;;;13.15;80.29;97960.23;1734163;81;24869;-85
2021/08/28 05:40:39;;;;;;;;;;;;;;;13.19;80.24;97961.66;1727174;81;20832;-83
2021/08/28 05:43:05;;;;;;;;;;;;;;;13.22;80.21;97966.14;1726705;82;26229;-86
2021/08/28 05:45:31;;;;;;;;;;;;;;;13.22;80.15;97963.52;1727916;81;24520;-86
2021/08/28 05:47:57;;;;;;;;;;;;;;;13.23;80.10;97959.09;1735561;81;20263;-86
2021/08/28 05:50:23;;;;;;;;;;;;;;;13.25;80.06;97959.80;1731591;81;25508;-85
2021/08/28 05:52:56;;;;;;;;;;;;;;;13.26;79.98;97960.13;1732318;82;22054;-88
2021/08/28 05:55:22;;;;;;;;;;;;;;;13.27;79.93;97964.42;1732595;81;26110;-88
2021/08/28 05:57:48;;;;;;;;;;;;;;;13.36;79.91;97963.12;1716001;81;24338;-86
2021/08/28 06:00:14;;;;;;;;;;;;;;;13.42;79.89;97967.00;1713855;82;20302;-86
2021/08/28 06:02:43;;;;;;;;;;;;;;;13.46;79.89;97971.04;1708094;82;24776;-85
2021/08/28 06:05:10;;;;;;;;;;;;;;;13.52;79.88;97971.81;1716750;82;21820;-87
2021/08/28 06:07:36;;;;;;;;;;;;;;;13.60;79.86;97968.48;1712999;82;26649;-88
2021/08/28 06:10:04;;;;;;;;;;;;;;;13.59;79.83;97962.39;1708508;82;24396;-87
2021/08/28 06:12:31;;;;;;;;;;;;;;;13.60;79.76;97959.28;1715743;82;20206;-87
2021/08/28 06:14:57;;;;;;;;;;;;;;;13.61;79.69;97962.26;1713233;82;24801;-87
2021/08/28 06:17:23;;;;;;;;;;;;;;;13.62;79.64;97960.81;1717732;82;21737;-88
2021/08/28 06:19:54;;;;;;;;;;;;;;;13.60;79.57;97964.05;1710635;82;21154;-88
2021/08/28 06:22:20;;;;;;;;;;;;;;;13.63;79.53;97971.69;1710479;82;24414;-87
2021/08/28 06:24:46;;;;;;;;;;;;;;;13.68;79.48;97966.01;1714321;82;20305;-86
2021/08/28 06:27:12;;;;;;;;;;;;;;;13.72;79.44;97962.96;1716097;82;20259;-88
2021/08/28 06:29:38;;;;;;;;;;;;;;;13.81;79.44;97966.55;1713697;82;20799;-87
2021/08/28 06:32:04;;;;;;;;;;;;;;;13.86;79.43;97968.27;1715423;82;21100;-87
2021/08/28 06:34:32;;;;;;;;;;;;;;;13.91;79.42;97967.88;1708336;82;24428;-86
2021/08/28 06:36:58;;;;;;;;;;;;;;;13.94;79.39;97963.64;1714686;82;20712;-86
2021/08/28 06:39:25;;;;;;;;;;;;;;;13.92;79.35;97962.46;1715918;82;24786;-84
2021/08/28 06:41:51;;;;;;;;;;;;;;;13.92;79.28;97958.52;1713818;82;22024;-84
2021/08/28 06:44:17;;;;;;;;;;;;;;;14.00;79.28;97964.41;1710279;82;26123;-84
2021/08/28 06:46:43;;;;;;;;;;;;;;;14.03;79.24;97954.91;1711492;83;24489;-87
2021/08/28 06:49:09;;;;;;;;;;;;;;;14.10;79.22;97963.91;1720070;83;20409;-86
2021/08/28 06:51:36;;;;;;;;;;;;;;;14.19;79.21;97965.20;1718726;82;24725;-86
2021/08/28 06:54:02;;;;;;;;;;;;;;;14.26;79.20;97956.26;1718149;83;21827;-86
2021/08/28 06:56:28;;;;;;;;;;;;;;;14.33;79.19;97957.84;1719770;83;25852;-86
2021/08/28 06:58:57;;;;;;;;;;;;;;;14.39;79.20;97964.73;1708133;82;20869;-88
2021/08/28 07:01:32;;;;;;;;;;;;;;;14.49;79.20;97962.06;1723673;82;20292;-88
2021/08/28 07:04:01;;;;;;;;;;;;;;;14.55;79.19;97953.11;1732675;82;24943;-87
2021/08/28 07:06:27;;;;;;;;;;;;;;;14.57;79.17;97951.14;1727987;81;22065;-85
2021/08/28 07:08:55;;;;;;;;;;;;;;;14.72;79.15;97964.70;1730057;81;26711;-85
2021/08/28 07:11:21;;;;;;;;;;;;;;;14.79;79.09;97960.48;1729443;81;24459;-85
2021/08/28 07:13:47;;;;;;;;;;;;;;;14.84;79.05;97961.36;1730100;81;20223;-88
2021/08/28 07:16:13;;;;;;;;;;;;;;;14.91;78.99;97959.81;1729905;81;24759;-87
2021/08/28 07:18:39;;;;;;;;;;;;;;;14.99;78.94;97964.72;1730210;81;20832;-87
2021/08/28 07:21:05;;;;;;;;;;;;;;;15.14;78.89;97965.53;1731184;81;21005;-87
2021/08/28 07:23:34;;;;;;;;;;;;;;;15.17;78.83;97967.38;1725343;82;24641;-88
2021/08/28 07:26:00;;;;;;;;;;;;;;;15.22;78.77;97969.08;1723052;81;20303;-88
2021/08/28 07:28:26;;;;;;;;;;;;;;;15.28;78.70;97965.86;1730033;81;24633;-88
2021/08/28 07:30:54;;;;;;;;;;;;;;;15.34;78.63;97970.55;1730227;81;22838;-88
2021/08/28 07:33:20;;;;;;;;;;;;;;;15.40;78.54;97964.68;1727782;81;25940;-87
2021/08/28 07:35:46;;;;;;;;;;;;;;;15.44;78.48;97962.08;1728744;81;20294;-86
2021/08/28 07:38:12;;;;;;;;;;;;;;;15.45;78.36;97967.70;1729234;81;20974;-87
2021/08/28 07:40:38;;;;;;;;;;;;;;;15.55;78.26;97970.81;1729422;82;20231;-87
2021/08/28 07:43:04;;;;;;;;;;;;;;;15.65;78.17;97968.93;1730982;81;22238;-86
2021/08/28 07:45:36;;;;;;;;;;;;;;;15.75;78.12;97969.69;1726412;82;26561;-87
2021/08/28 07:48:02;;;;;;;;;;;;;;;15.83;78.07;97967.11;1728263;82;24516;-87
2021/08/28 07:50:29;;;;;;;;;;;;;;;15.89;77.98;97960.73;1727420;81;20322;-86
2021/08/28 07:52:55;;;;;;;;;;;;;;;15.94;77.82;97961.59;1730095;81;24755;-87
2021/08/28 07:55:21;;;;;;;;;;;;;;;16.02;77.67;97960.36;1732240;81;21977;-87
2021/08/28 07:57:47;;;;;;;;;;;;;;;16.05;77.53;97961.84;1700495;82;25978;-85
2021/08/28 08:00:16;;;;;;;;;;;;;;;16.11;77.46;97967.35;1687612;83;24546;-87
2021/08/28 08:02:42;;;;;;;;;;;;;;;16.16;77.36;97963.75;1696651;84;20381;-87
2021/08/28 08:05:11;;;;;;;;;;;;;;;16.21;77.22;97961.48;1662313;84;20492;-85
2021/08/28 08:07:37;;;;;;;;;;;;;;;16.29;77.09;97953.63;1687997;83;22254;-85
2021/08/28 08:10:09;;;;;;;;;;;;;;;16.38;77.01;97959.78;1689786;84;26163;-87
2021/08/28 08:12:38;;;;;;;;;;;;;;;16.42;76.91;97957.16;1684623;83;24492;-87
2021/08/28 08:15:04;;;;;;;;;;;;;;;16.50;76.85;97960.36;1682012;83;20293;-86
2021/08/28 08:17:30;;;;;;;;;;;;;;;16.58;76.76;97956.47;1689373;83;24807;-88
2021/08/28 08:19:56;;;;;;;;;;;;;;;16.71;76.68;97960.36;1688261;83;22075;-87
2021/08/28 08:22:24;;;;;;;;;;;;;;;16.78;76.57;97964.52;1681554;83;26857;-88
2021/08/28 08:24:52;;;;;;;;;;;;;;;16.88;76.46;97959.11;1693374;83;25042;-87
2021/08/28 08:27:18;;;;;;;;;;;;;;;16.94;76.33;97961.13;1691377;83;20240;-88
2021/08/28 08:29:44;;;;;;;;;;;;;;;16.99;76.16;97962.31;1693623;83;20751;-88
2021/08/28 08:32:10;;;;;;;;;;;;;;;17.06;76.08;97954.58;1685932;83;20856;-87
2021/08/28 08:34:36;;;;;;;;;;;;;;;17.11;76.01;97962.37;1690711;83;26078;-87
2021/08/28 08:37:02;;;;;;;;;;;;;;;17.15;75.89;97958.41;1687345;83;20381;-88
2021/08/28 08:39:28;;;;;;;;;;;;;;;17.20;75.77;97960.56;1694355;83;20582;-84
2021/08/28 08:41:55;;;;;;;;;;;;;;;17.25;75.62;97956.95;1692716;83;24846;-84
2021/08/28 08:44:21;;;;;;;;;;;;;;;17.33;75.44;97956.98;1692653;83;21999;-84
2021/08/28 08:46:48;;;;;;;;;;;;;;;17.39;75.17;97962.12;1686709;83;26049;-88
2021/08/28 08:49:15;;;;;;;;;;;;;;;17.46;75.01;97962.62;1695770;82;25261;-88
2021/08/28 08:51:42;;;;;;;;;;;;;;;17.54;74.90;97965.80;1691388;83;20464;-88
2021/08/28 08:54:08;;;;;;;;;;;;;;;17.65;74.79;97966.84;1695180;83;24985;-88
2021/08/28 08:56:35;;;;;;;;;;;;;;;17.76;74.76;97963.88;1692436;82;20882;-87
2021/08/28 08:59:01;;;;;;;;;;;;;;;17.80;74.62;97965.70;1711870;83;26720;-87
2021/08/28 09:01:27;;;;;;;;;;;;;;;17.85;74.44;97965.53;1710460;83;20913;-86
2021/08/28 09:03:55;;;;;;;;;;;;;;;17.92;74.32;97967.03;1712089;83;20338;-86
2021/08/28 09:06:21;;;;;;;;;;;;;;;17.91;74.16;97954.30;1710639;83;24932;-85
2021/08/28 09:08:47;;;;;;;;;;;;;;;18.05;74.04;97963.41;1706937;83;20320;-86
2021/08/28 09:11:24;;;;;;;;;;;;;;;18.08;73.90;97961.75;1706839;83;26199;-85
2021/08/28 09:13:54;;;;;;;;;;;;;;;18.11;73.70;97956.10;1707354;84;25090;-85
2021/08/28 09:16:29;;;;;;;;;;;;;;;18.16;73.55;97966.23;1708731;84;20273;-86
2021/08/28 09:18:58;;;;;;;;;;;;;;;18.13;73.33;97970.52;1704371;84;24831;-86
2021/08/28 09:21:26;;;;;;;;;;;;;;;18.09;73.10;97971.35;1707775;84;21951;-85
2021/08/28 09:23:58;;;;;;;;;;;;;;;18.07;72.93;97968.52;1709055;81;26751;-88
2021/08/28 09:26:29;;;;;;;;;;;;;;;18.03;72.73;97969.36;1708873;81;24692;-88
2021/08/28 09:28:55;;;;;;;;;;;;;;;18.00;72.50;97972.36;1707092;84;20212;-89
2021/08/28 09:31:40;;;;;;;;;;;;;;;17.92;72.37;97971.01;1705641;84;24194;-88
2021/08/28 09:34:25;;;;;;;;;;;;;;;17.90;72.27;97976.45;1706181;84;22068;-88
2021/08/28 09:37:02;;;;;;;;;;;;;;;17.90;72.13;97975.63;1706042;82;26024;-88
2021/08/28 09:39:39;;;;;;;;;;;;;;;17.88;72.00;97973.17;1706935;82;24447;-88
2021/08/28 09:42:05;;;;;;;;;;;;;;;17.82;71.88;97975.64;1709146;84;20192;-88
2021/08/28 09:44:37;;;;;;;;;;;;;;;17.76;71.79;97983.73;1705098;84;24716;-88
2021/08/28 09:47:13;;;;;;;;;;;;;;;17.72;71.70;97981.09;1706370;82;21997;-87
2021/08/28 09:49:46;;;;;;;;;;;;;;;17.70;71.64;97980.91;1704770;84;26117;-88
2021/08/28 09:52:14;;;;;;;;;;;;;;;17.71;71.61;97981.24;1702588;84;24418;-85
2021/08/28 09:54:40;;;;;;;;;;;;;;;17.71;71.61;97975.95;1709488;84;20288;-83
2021/08/28 09:57:06;;;;;;;;;;;;;;;17.72;71.59;97971.83;1711759;82;24811;-84
2021/08/28 09:59:35;;;;;;;;;;;;;;;17.73;71.57;97968.69;1739339;82;21951;-83
2021/08/28 10:02:04;;;;;;;;;;;;;;;17.74;71.54;97978.26;1741358;80;26117;-84
2021/08/28 10:04:32;;;;;;;;;;;;;;;17.71;71.54;97981.24;1738111;80;24473;-84
2021/08/28 10:06:59;;;;;;;;;;;;;;;17.73;71.49;97978.75;1735995;80;20810;-84
2021/08/28 10:09:25;;;;;;;;;;;;;;;17.75;71.46;97978.10;1734551;82;24734;-88
2021/08/28 10:11:53;;;;;;;;;;;;;;;17.79;71.49;97979.42;1740089;81;22063;-88
2021/08/28 10:14:22;;;;;;;;;;;;;;;17.78;71.47;97977.77;1742622;82;26825;-88
2021/08/28 10:16:49;;;;;;;;;;;;;;;17.87;71.38;97978.62;1742443;80;24764;-88
2021/08/28 10:19:18;;;;;;;;;;;;;;;17.95;71.31;97974.14;1736415;82;20509;-88
2021/08/28 10:21:44;;;;;;;;;;;;;;;18.06;71.22;97976.13;1714764;81;24678;-88
2021/08/28 10:24:20;;;;;;;;;;;;;;;18.11;71.13;97976.48;1736545;80;20236;-88
2021/08/28 10:26:46;;;;;;;;;;;;;;;18.20;71.08;97975.48;1741656;80;25939;-88
2021/08/28 10:29:13;;;;;;;;;;;;;;;18.30;70.90;97980.11;1739797;82;24465;-88
2021/08/28 10:31:41;;;;;;;;;;;;;;;18.42;70.80;97976.63;1734167;81;20553;-88
2021/08/28 10:34:08;;;;;;;;;;;;;;;18.60;70.70;97975.45;1740369;81;24737;-88
2021/08/28 10:36:35;;;;;;;;;;;;;;;18.78;70.51;97978.73;1739718;82;22191;-88
2021/08/28 10:39:02;;;;;;;;;;;;;;;18.87;70.25;97974.75;1742582;81;26265;-89
2021/08/28 10:41:32;;;;;;;;;;;;;;;18.93;70.00;97974.88;1738923;81;24658;-88
2021/08/28 10:43:59;;;;;;;;;;;;;;;18.95;69.75;97977.36;1740960;81;20317;-88
2021/08/28 10:46:27;;;;;;;;;;;;;;;18.97;69.52;97979.36;1742266;81;24905;-88
2021/08/28 10:48:57;;;;;;;;;;;;;;;18.98;69.27;97981.84;1740374;80;21940;-88
2021/08/28 10:51:24;;;;;;;;;;;;;;;18.97;69.06;97984.66;1739173;82;25940;-88
2021/08/28 10:53:51;;;;;;;;;;;;;;;18.99;68.85;97986.63;1737706;82;25250;-88
2021/08/28 10:56:17;;;;;;;;;;;;;;;19.04;68.67;97978.98;1740229;82;20258;-88
2021/08/28 10:58:44;;;;;;;;;;;;;;;19.11;68.49;97977.30;1737924;80;24766;-88
2021/08/28 11:01:10;;;;;;;;;;;;;;;19.16;68.37;97979.77;1736797;82;22071;-89
2021/08/28 11:03:36;;;;;;;;;;;;;;;19.22;68.25;97984.89;1737454;80;26125;-88
2021/08/28 11:06:06;;;;;;;;;;;;;;;19.22;68.11;97983.56;1737449;80;24427;-88
2021/08/28 11:08:36;;;;;;;;;;;;;;;19.16;67.93;97981.09;1739759;80;20342;-88
2021/08/28 11:11:04;;;;;;;;;;;;;;;19.17;67.74;97980.10;1740040;81;24885;-84
2021/08/28 11:13:35;;;;;;;;;;;;;;;19.21;67.64;97979.25;1741347;80;22615;-83
2021/08/28 11:16:02;;;;;;;;;;;;;;;19.16;67.39;97971.81;1740973;80;26645;-84
2021/08/28 11:18:43;;;;;;;;;;;;;;;19.19;67.28;97979.45;1757782;80;20934;-84
2021/08/28 11:21:09;;;;;;;;;;;;;;;19.15;67.10;97975.95;1740133;82;20268;-84
2021/08/28 11:23:39;;;;;;;;;;;;;;;19.16;66.94;97981.59;1741380;81;24747;-84
2021/08/28 11:26:05;;;;;;;;;;;;;;;19.16;66.80;97981.59;1747138;81;22042;-84
2021/08/28 11:28:39;;;;;;;;;;;;;;;19.15;66.65;97979.44;1744246;82;26033;-83
2021/08/28 11:31:08;;;;;;;;;;;;;;;19.16;66.61;97974.96;1737748;82;25288;-89
2021/08/28 11:33:35;;;;;;;;;;;;;;;19.13;66.53;97977.97;1737643;81;20601;-89
2021/08/28 11:36:08;;;;;;;;;;;;;;;19.12;66.42;97983.77;1739953;81;25366;-89
2021/08/28 11:38:35;;;;;;;;;;;;;;;19.14;66.25;97982.28;1738279;82;21973;-88
2021/08/28 11:41:09;;;;;;;;;;;;;;;19.18;66.08;97986.23;1738513;80;25961;-89
2021/08/28 11:43:37;;;;;;;;;;;;;;;19.17;65.99;97988.56;1737944;82;25277;-88
2021/08/28 11:46:04;;;;;;;;;;;;;;;19.21;65.90;97987.20;1737807;80;20263;-88
2021/08/28 11:48:32;;;;;;;;;;;;;;;19.19;65.86;97990.55;1739530;80;25548;-89
2021/08/28 11:51:11;;;;;;;;;;;;;;;19.22;65.83;97984.39;1735579;82;22189;-90
2021/08/28 11:53:38;;;;;;;;;;;;;;;19.22;65.79;97979.58;1739996;81;25970;-89
2021/08/28 11:56:06;;;;;;;;;;;;;;;19.27;65.73;97981.22;1738474;82;24511;-88
2021/08/28 11:58:32;;;;;;;;;;;;;;;19.31;65.66;97981.19;1722394;80;20269;-88
2021/08/28 12:00:59;;;;;;;;;;;;;;;19.32;65.63;97992.63;1708424;83;25556;-88
2021/08/28 12:03:27;;;;;;;;;;;;;;;19.34;65.60;97990.15;1737815;81;20984;-87
2021/08/28 12:05:54;;;;;;;;;;;;;;;19.36;65.55;97987.33;1705247;84;26040;-86
2021/08/28 12:08:20;;;;;;;;;;;;;;;19.36;65.47;97985.51;1708423;83;24864;-85
2021/08/28 12:10:46;;;;;;;;;;;;;;;19.37;65.36;97993.77;1708665;83;20474;-85
2021/08/28 12:13:13;;;;;;;;;;;;;;;19.39;65.28;97990.95;1707527;84;24808;-86
2021/08/28 12:15:40;;;;;;;;;;;;;;;19.40;65.24;97992.11;1707424;83;21962;-84
2021/08/28 12:18:06;;;;;;;;;;;;;;;19.43;65.17;97986.45;1706954;83;26093;-84
2021/08/28 12:20:35;;;;;;;;;;;;;;;19.51;65.18;97983.80;1707298;84;24468;-84
2021/08/28 12:23:02;;;;;;;;;;;;;;;19.56;65.17;97985.92;1690546;84;20403;-83
2021/08/28 12:25:29;;;;;;;;;;;;;;;19.57;65.11;97983.59;1739120;81;24677;-84
2021/08/28 12:27:55;;;;;;;;;;;;;;;19.54;65.04;97983.93;1707694;84;22728;-84
2021/08/28 12:30:23;;;;;;;;;;;;;;;19.58;64.92;97978.09;1707684;84;26024;-85
2021/08/28 12:32:50;;;;;;;;;;;;;;;19.63;64.87;97982.41;1707125;82;24459;-85
2021/08/28 12:35:16;;;;;;;;;;;;;;;19.77;64.86;97979.98;1709376;83;20485;-84
2021/08/28 12:37:42;;;;;;;;;;;;;;;19.82;64.78;97972.31;1707424;84;24790;-85
2021/08/28 12:40:13;;;;;;;;;;;;;;;19.82;64.64;97969.16;1707142;83;21961;-85
2021/08/28 12:42:41;;;;;;;;;;;;;;;19.79;64.49;97972.67;1709087;83;25975;-84
2021/08/28 12:45:08;;;;;;;;;;;;;;;19.89;64.41;97970.11;1705243;84;24664;-84
2021/08/28 12:47:39;;;;;;;;;;;;;;;19.94;64.30;97967.75;1706804;84;20278;-85
2021/08/28 12:50:09;;;;;;;;;;;;;;;20.01;64.21;97962.56;1706317;84;21129;-84